172-й км

Карта отелей и гостиниц, располагающихся рядом с аэропортом 172-й км :

172-й км Ямало-Ненецкий автономный округ 65° 37' 45.9588" N, 73° 44' 8.2212" E
172-й км Ямало-Ненецкий автономный округ 65° 37' 45.9588" N, 73° 44' 8.2212" E
Код аэродрома ИКАО
HB69
Код аэродрома RU
ХБ69
Координаты
N65.62943° E073.73562°
Превышение над уровнем моря
70
Основная полоса
Курс магнитный
Длина основной ВПП
Ширина основной ВПП
Покрытие основной ВПП
Освещение ВПП
Тип: 
Вертодром
Класс аэродрома: 
Принадлежность: 
ГА
Статус: 
Недействующий
Сайт: 
E-mail аэродрома: 
Страна: 
Россия
Регион: 
Ямало-Ненецкий автономный округ
Город: 
Дополнительная информация: 

Найти трансфер

С помощью этой формы Вы можете найти трансфер из аэропорта 172-й км в город, аэропорт или вокзал:

Карта места

Javascript is required to view this map.

Погода в аэропортах:

Авиационная погода в Яссах

Регион: 
Погода METAR: 
LRIA 061030Z 14002KT 2000 -DZ BR OVC002 04/03 Q1007
Время наблюдения
2021-12-06T10:30:00Z
Температура C
4.0
Точка росы
3.0
Направление ветра
140
Скорость ветра (узлы)
2
Метео видимость
1.24
Явления погоды
-DZ BR
Условия полета
LIFR

Авиационная погода в Вардё

Регион: 
Погода METAR: 
ENSS 061020Z 23028KT 9999 DRSN FEW030 BKN042 M08/M12 Q1016 RMK WIND 500FT 24037KT
Время наблюдения
2021-12-06T10:20:00Z
Температура C
-8.0
Точка росы
-12.0
Направление ветра
230
Скорость ветра (узлы)
28
Метео видимость
6.21
Явления погоды
DRSN
Условия полета
VFR

Авиационная погода в Киркенесе

Регион: 
Погода METAR: 
ENKR 061020Z 23020KT 9999 DRSN SCT100 M15/M20 Q1020 RMK WIND 731FT 23022KT
Время наблюдения
2021-12-06T10:20:00Z
Температура C
-15.0
Точка росы
-20.0
Направление ветра
230
Скорость ветра (узлы)
20
Метео видимость
6.21
Явления погоды
DRSN
Условия полета
VFR

Авиационная погода в Усть-Каменогорске

Регион: 
Погода METAR: 
UASK 060800Z 00000MPS 1500 R30/1500N BR PRFG FEW005 M03/M04 Q1022 NOSIG RMK QBB150 QFE741/0988
Время наблюдения
2021-12-06T08:00:00Z
Температура C
-3.0
Точка росы
-4.0
Направление ветра
0
Скорость ветра (узлы)
0
Метео видимость
0.93
Явления погоды
BR PRFG
Условия полета
LIFR
Аэропорт подробнее: